Arden, North Carolina
Current Conditions -  °F | °C
As of 3:54 PM on Monday 24 Nov 2014 (Local Time) from KAVL Reporting Station
Clear Clear  
Wind Chill: 66°   Ceiling: Unl
Heat Index: 66°   Visibility: 10mi
Dew Point: 51°   Wind: 13mph
Humidity: 59%   Direction: 200°SSW
Pressure: 29.79"   Gusts: NA
Location:  35.47°N, 82.52°W
Report Text: KAVL 242054Z 20011KT 10SM CLR 19/11 A2979 RMK AO2 SLP071 T01890106 53007
Loading
Personal Weather Stations






























Interactive Weather Map New forecast layout! Learn more

10-Day Weather Forecast

Advertisements
Track Severe Weather on mobile